Time;durP1;ratioP1;P1;durP2;ratioP2;P2;SDS_P1;SDS_P2;PMS_P1;PMS_P2;Temp;Humidity;BMP_temperature;BMP_pressure;BME280_temperature;BME280_humidity;BME280_pressure;Samples;Min_cycle;Max_cycle;Signal;HPM_P1;HPM_P2
2023/03/13 00:02:23;;;;;;;1.90;1.57;;;10.80;99.90;;;;;;5032803;28;20644;-61
2023/03/13 00:04:49;;;;;;;1.27;1.20;;;10.80;99.90;;;;;;5032189;28;20695;-62
2023/03/13 00:07:18;;;;;;;1.83;1.73;;;10.80;99.90;;;;;;5032710;28;20213;-62
2023/03/13 00:09:44;;;;;;;1.40;1.30;;;10.80;99.90;;;;;;5032741;28;20219;-63
2023/03/13 00:12:11;;;;;;;1.50;1.40;;;11.00;99.90;;;;;;5032775;28;20220;-62
2023/03/13 00:14:38;;;;;;;1.50;1.40;;;11.00;99.90;;;;;;5032226;28;20225;-63
2023/03/13 00:17:05;;;;;;;1.43;1.30;;;11.00;99.90;;;;;;5032467;28;20209;-62
2023/03/13 00:19:32;;;;;;;1.57;1.47;;;11.00;99.90;;;;;;5032876;28;20212;-62
2023/03/13 00:21:59;;;;;;;1.20;1.10;;;11.10;99.90;;;;;;5032605;28;20536;-62
2023/03/13 00:24:27;;;;;;;1.40;1.30;;;11.10;99.90;;;;;;5031885;28;20224;-63
2023/03/13 00:26:55;;;;;;;1.23;1.13;;;11.10;99.90;;;;;;5032496;28;20222;-62
2023/03/13 00:29:22;;;;;;;1.40;1.30;;;11.10;99.90;;;;;;5031448;28;20679;-63
2023/03/13 00:31:48;;;;;;;1.17;1.03;;;11.10;99.90;;;;;;5032541;28;20209;-62
2023/03/13 00:34:15;;;;;;;1.87;1.40;;;11.10;99.90;;;;;;5031596;28;20215;-62
2023/03/13 00:36:42;;;;;;;1.10;1.10;;;11.20;99.90;;;;;;5031657;28;20988;-62
2023/03/13 00:39:09;;;;;;;1.27;1.17;;;11.20;99.90;;;;;;5031532;28;20816;-62
2023/03/13 00:41:38;;;;;;;1.17;1.07;;;11.20;99.90;;;;;;5031011;28;20228;-63
2023/03/13 00:44:05;;;;;;;1.47;1.40;;;11.20;99.90;;;;;;5030176;28;20224;-62
2023/03/13 00:46:32;;;;;;;1.50;1.40;;;11.20;99.90;;;;;;5031411;28;20291;-63
2023/03/13 00:48:58;;;;;;;1.10;1.10;;;11.10;99.90;;;;;;5030804;28;20201;-62
2023/03/13 00:51:26;;;;;;;1.23;1.13;;;11.10;99.90;;;;;;5033326;28;20221;-62
2023/03/13 00:53:53;;;;;;;1.00;1.00;;;11.20;99.90;;;;;;5030538;28;20204;-61
2023/03/13 00:56:21;;;;;;;1.20;1.10;;;11.30;99.90;;;;;;5031236;28;20225;-62
2023/03/13 00:58:50;;;;;;;1.30;1.20;;;11.30;99.90;;;;;;5043551;28;20215;-61
2023/03/13 01:01:20;;;;;;;1.10;1.10;;;11.30;99.90;;;;;;5030341;28;20687;-63
2023/03/13 01:03:50;;;;;;;1.20;1.10;;;11.30;99.90;;;;;;5030870;28;20237;-63
2023/03/13 01:06:19;;;;;;;1.40;1.30;;;11.40;99.90;;;;;;5030034;28;20229;-63
2023/03/13 01:08:46;;;;;;;1.07;1.07;;;11.40;99.90;;;;;;5032219;28;20205;-62
2023/03/13 01:11:16;;;;;;;1.30;1.20;;;11.40;99.90;;;;;;5032176;28;20216;-62
2023/03/13 01:13:43;;;;;;;1.30;1.20;;;11.40;99.90;;;;;;5031690;28;20250;-61
2023/03/13 01:16:13;;;;;;;1.30;1.20;;;11.30;99.90;;;;;;5031326;28;20595;-62
2023/03/13 01:18:42;;;;;;;1.10;1.00;;;11.40;99.90;;;;;;5031737;28;20205;-62
2023/03/13 01:21:10;;;;;;;1.20;1.10;;;11.40;99.90;;;;;;5042683;28;20291;-63
2023/03/13 01:23:37;;;;;;;0.82;0.82;;;11.40;99.90;;;;;;5051267;28;20219;-63
2023/03/13 01:26:05;;;;;;;1.20;1.10;;;11.40;99.90;;;;;;5030774;28;20605;-61
2023/03/13 01:28:33;;;;;;;1.03;1.03;;;11.50;99.90;;;;;;5031634;28;20673;-62
2023/03/13 01:31:00;;;;;;;1.10;1.00;;;11.60;99.90;;;;;;5031437;28;20205;-62
2023/03/13 01:33:28;;;;;;;1.03;1.03;;;11.60;99.90;;;;;;5031201;28;20204;-62
2023/03/13 01:36:01;;;;;;;1.00;1.00;;;11.60;99.90;;;;;;5030828;28;20815;-63
2023/03/13 01:38:28;;;;;;;1.40;1.30;;;11.50;99.90;;;;;;5031579;28;20192;-63
2023/03/13 01:40:55;;;;;;;1.27;1.00;;;11.50;99.90;;;;;;5031016;28;20228;-62
2023/03/13 01:43:24;;;;;;;1.20;1.10;;;11.50;99.90;;;;;;5031190;28;20212;-61
2023/03/13 01:45:59;;;;;;;1.13;0.83;;;11.40;99.90;;;;;;5030778;28;20692;-61
2023/03/13 01:48:33;;;;;;;0.90;0.90;;;11.40;99.90;;;;;;5033465;28;20208;-61
2023/03/13 01:51:02;;;;;;;1.00;1.00;;;11.30;99.90;;;;;;5032092;28;20185;-61
2023/03/13 01:53:33;;;;;;;0.90;0.90;;;11.30;99.90;;;;;;5030703;28;20215;-62
2023/03/13 01:56:01;;;;;;;1.10;1.10;;;11.20;99.90;;;;;;5030347;28;20231;-61
2023/03/13 01:58:29;;;;;;;0.80;0.80;;;11.20;99.90;;;;;;5030808;28;20639;-62
2023/03/13 02:00:56;;;;;;;1.33;1.07;;;11.20;99.90;;;;;;5030827;28;20207;-61
2023/03/13 02:03:24;;;;;;;1.10;1.00;;;11.20;99.90;;;;;;5030965;28;20200;-62
2023/03/13 02:05:52;;;;;;;3.03;1.20;;;11.20;99.90;;;;;;5030423;28;20328;-62
2023/03/13 02:08:22;;;;;;;1.07;1.07;;;11.10;99.90;;;;;;5031204;28;20764;-62
2023/03/13 02:10:53;;;;;;;0.90;0.90;;;11.10;99.90;;;;;;5031401;28;20193;-62
2023/03/13 02:13:21;;;;;;;1.10;1.00;;;11.20;99.90;;;;;;5030828;28;20552;-62
2023/03/13 02:15:48;;;;;;;1.30;1.13;;;11.20;99.90;;;;;;5031175;28;20232;-61
2023/03/13 02:18:15;;;;;;;1.10;0.90;;;11.20;99.90;;;;;;5031203;28;20363;-61
2023/03/13 02:20:42;;;;;;;1.20;1.10;;;11.10;99.90;;;;;;5027146;28;20218;-61
2023/03/13 02:23:19;;;;;;;1.00;0.90;;;11.10;99.90;;;;;;5031253;28;20212;-62
2023/03/13 02:25:49;;;;;;;1.00;1.00;;;11.10;99.90;;;;;;5030336;28;20240;-61
2023/03/13 02:28:19;;;;;;;1.17;1.17;;;11.10;99.90;;;;;;5031986;28;20236;-62
2023/03/13 02:30:48;;;;;;;1.40;1.30;;;11.20;99.90;;;;;;5030755;28;20310;-63
2023/03/13 02:33:17;;;;;;;0.93;0.93;;;11.20;99.90;;;;;;5035564;28;20424;-62
2023/03/13 02:35:45;;;;;;;0.87;0.87;;;11.20;99.90;;;;;;5036239;28;20347;-63
2023/03/13 02:38:19;;;;;;;0.87;0.87;;;11.20;99.90;;;;;;5037978;28;20208;-62
2023/03/13 02:40:48;;;;;;;1.00;1.00;;;11.30;99.90;;;;;;5036433;28;20208;-61
2023/03/13 02:43:20;;;;;;;0.80;0.80;;;11.40;99.90;;;;;;5031523;28;20219;-61
2023/03/13 02:46:05;;;;;;;0.97;0.97;;;11.40;99.90;;;;;;5030173;28;20236;-61
2023/03/13 02:48:34;;;;;;;1.00;1.00;;;11.40;99.90;;;;;;5031265;28;20211;-61
2023/03/13 02:51:04;;;;;;;0.90;0.90;;;11.40;99.90;;;;;;5030805;28;20216;-61
2023/03/13 02:53:31;;;;;;;0.60;0.60;;;11.60;99.90;;;;;;5034905;28;20231;-62
2023/03/13 02:56:00;;;;;;;0.57;0.57;;;11.60;99.90;;;;;;5034167;28;20240;-62
2023/03/13 02:58:26;;;;;;;0.90;0.90;;;11.50;99.90;;;;;;5035044;28;20204;-63
2023/03/13 03:00:53;;;;;;;0.80;0.80;;;11.60;99.90;;;;;;5034934;28;20204;-62
2023/03/13 03:03:20;;;;;;;1.17;0.90;;;11.60;99.90;;;;;;5037071;28;20215;-61
2023/03/13 03:05:47;;;;;;;0.80;0.80;;;11.60;99.90;;;;;;5037200;28;20236;-61
2023/03/13 03:08:14;;;;;;;0.80;0.80;;;11.60;99.90;;;;;;5035025;28;20210;-62
2023/03/13 03:10:41;;;;;;;0.70;0.70;;;11.60;99.90;;;;;;5034113;28;20644;-62
2023/03/13 03:13:09;;;;;;;1.10;1.00;;;11.60;99.90;;;;;;5038941;28;20387;-63
2023/03/13 03:15:36;;;;;;;0.87;0.87;;;11.60;99.90;;;;;;5034661;28;20316;-62
2023/03/13 03:18:03;;;;;;;0.80;0.80;;;11.70;99.90;;;;;;5034690;28;20654;-61
2023/03/13 03:20:29;;;;;;;0.77;0.77;;;11.70;99.90;;;;;;5033979;28;20208;-61
2023/03/13 03:22:56;;;;;;;0.80;0.80;;;11.70;99.90;;;;;;5039997;28;20209;-63
2023/03/13 03:25:23;;;;;;;0.70;0.70;;;11.70;99.90;;;;;;5032791;28;20224;-62
2023/03/13 03:27:50;;;;;;;0.70;0.70;;;11.70;99.90;;;;;;5034011;28;20683;-62
2023/03/13 03:30:18;;;;;;;0.60;0.60;;;11.70;99.90;;;;;;5034075;28;20204;-63
2023/03/13 03:32:45;;;;;;;0.80;0.80;;;11.80;99.90;;;;;;5033749;28;20201;-63
2023/03/13 03:35:12;;;;;;;0.90;0.90;;;11.80;99.90;;;;;;5033190;28;20227;-63
2023/03/13 03:37:39;;;;;;;0.70;0.70;;;11.80;99.90;;;;;;5033641;28;20204;-63
2023/03/13 03:40:07;;;;;;;0.90;0.90;;;11.70;99.90;;;;;;5033696;28;20204;-61
2023/03/13 03:42:33;;;;;;;0.83;0.83;;;11.80;99.90;;;;;;5033620;28;20204;-61
2023/03/13 03:45:00;;;;;;;0.63;0.63;;;11.80;99.90;;;;;;5033237;28;20312;-60
2023/03/13 03:47:28;;;;;;;0.70;0.70;;;11.80;99.90;;;;;;5033355;28;20199;-62
2023/03/13 03:49:55;;;;;;;0.80;0.80;;;11.90;99.90;;;;;;5033388;28;20635;-61
2023/03/13 03:52:22;;;;;;;0.80;0.80;;;11.90;99.90;;;;;;5033026;28;20220;-61
2023/03/13 03:54:49;;;;;;;0.67;0.67;;;11.90;99.90;;;;;;5032585;28;20221;-62
2023/03/13 03:57:16;;;;;;;0.63;0.60;;;11.90;99.90;;;;;;5033499;28;20208;-63
2023/03/13 03:59:42;;;;;;;0.70;0.70;;;12.00;99.90;;;;;;5033261;28;20236;-62
2023/03/13 04:02:09;;;;;;;0.67;0.60;;;12.00;99.90;;;;;;5032900;28;20219;-61
2023/03/13 04:04:37;;;;;;;0.93;0.80;;;12.00;99.90;;;;;;5031162;28;20236;-61
2023/03/13 04:07:04;;;;;;;0.90;0.90;;;12.10;99.90;;;;;;5033651;28;20536;-61
2023/03/13 04:09:31;;;;;;;0.70;0.70;;;12.20;99.90;;;;;;5034762;28;20667;-61
2023/03/13 04:11:58;;;;;;;0.30;0.30;;;12.20;99.90;;;;;;5041136;28;20204;-61
2023/03/13 04:14:25;;;;;;;0.67;0.67;;;12.20;99.90;;;;;;5054618;28;20232;-62
2023/03/13 04:16:51;;;;;;;0.50;0.50;;;12.40;99.90;;;;;;5051681;28;20269;-63
2023/03/13 04:19:18;;;;;;;0.77;0.77;;;12.40;99.90;;;;;;5037755;28;20200;-61
2023/03/13 04:21:46;;;;;;;0.50;0.50;;;12.50;99.90;;;;;;5034379;28;20546;-61
2023/03/13 04:24:13;;;;;;;0.43;0.43;;;12.60;99.90;;;;;;5032733;28;20228;-61
2023/03/13 04:26:40;;;;;;;0.50;0.50;;;12.70;99.90;;;;;;5033613;28;20212;-61
2023/03/13 04:29:07;;;;;;;0.60;0.60;;;12.80;99.90;;;;;;5037284;28;20208;-61
2023/03/13 04:31:34;;;;;;;0.30;0.30;;;12.80;99.90;;;;;;5044473;28;20226;-62
2023/03/13 04:34:00;;;;;;;0.27;0.27;;;12.90;99.90;;;;;;5032508;28;20205;-62
2023/03/13 04:36:27;;;;;;;0.30;0.30;;;12.90;99.90;;;;;;5033219;28;20211;-62
2023/03/13 04:38:55;;;;;;;0.40;0.40;;;12.90;99.90;;;;;;5032750;28;20204;-62
2023/03/13 04:41:22;;;;;;;0.20;0.20;;;12.90;99.90;;;;;;5032688;28;20834;-63
2023/03/13 04:43:49;;;;;;;0.20;0.20;;;13.00;99.90;;;;;;5031924;28;20204;-61
2023/03/13 04:46:17;;;;;;;0.30;0.30;;;13.00;99.90;;;;;;5032149;28;20837;-62
2023/03/13 04:48:44;;;;;;;0.40;0.40;;;13.10;99.90;;;;;;5032681;28;20290;-61
2023/03/13 04:51:10;;;;;;;0.30;0.30;;;13.10;99.90;;;;;;5032404;28;20204;-61
2023/03/13 04:53:37;;;;;;;0.10;0.10;;;13.10;99.90;;;;;;5032230;28;20297;-63
2023/03/13 04:56:06;;;;;;;0.30;0.30;;;13.20;99.90;;;;;;5031543;28;20228;-61
2023/03/13 04:58:33;;;;;;;0.33;0.33;;;13.20;99.90;;;;;;5032430;28;20553;-61
2023/03/13 05:01:00;;;;;;;0.43;0.43;;;13.30;99.90;;;;;;5032473;28;20211;-64
2023/03/13 05:03:26;;;;;;;0.30;0.30;;;13.30;99.90;;;;;;5031715;28;20209;-62
2023/03/13 05:05:53;;;;;;;0.47;0.47;;;13.30;99.90;;;;;;5031751;28;20240;-63
2023/03/13 05:08:20;;;;;;;0.20;0.20;;;13.30;99.90;;;;;;5032252;28;20668;-61
2023/03/13 05:10:47;;;;;;;0.20;0.20;;;13.30;99.90;;;;;;5032470;28;20243;-61
2023/03/13 05:13:15;;;;;;;0.37;0.37;;;13.20;99.90;;;;;;5032365;28;20212;-61
2023/03/13 05:15:42;;;;;;;0.50;0.50;;;13.20;99.90;;;;;;5030803;28;20231;-61
2023/03/13 05:18:09;;;;;;;0.40;0.40;;;13.10;99.90;;;;;;5033976;28;20215;-61
2023/03/13 05:20:36;;;;;;;0.73;0.50;;;13.10;99.90;;;;;;5032136;28;20207;-62
2023/03/13 05:23:02;;;;;;;0.23;0.20;;;13.10;99.90;;;;;;5034714;28;20211;-62
2023/03/13 05:25:29;;;;;;;0.50;0.50;;;13.20;99.90;;;;;;5050395;28;20650;-62
2023/03/13 05:27:56;;;;;;;0.43;0.43;;;13.10;99.90;;;;;;5045166;28;20308;-61
2023/03/13 05:30:24;;;;;;;0.20;0.20;;;13.10;99.90;;;;;;5048943;28;20857;-61
2023/03/13 05:32:51;;;;;;;0.40;0.40;;;13.00;99.90;;;;;;5051184;28;20208;-61
2023/03/13 05:35:18;;;;;;;0.30;0.30;;;13.10;99.90;;;;;;5052080;28;20228;-61
2023/03/13 05:37:46;;;;;;;0.40;0.40;;;13.10;99.90;;;;;;5052145;28;20257;-63
2023/03/13 05:40:13;;;;;;;0.40;0.40;;;13.10;99.90;;;;;;5051273;28;20203;-61
2023/03/13 05:42:40;;;;;;;0.20;0.20;;;13.20;99.90;;;;;;5041065;28;20200;-61
2023/03/13 05:45:08;;;;;;;0.20;0.20;;;13.20;99.90;;;;;;5030893;28;20224;-62
2023/03/13 05:47:37;;;;;;;0.50;0.50;;;13.10;99.90;;;;;;5031266;28;20239;-62
2023/03/13 05:50:04;;;;;;;0.40;0.40;;;13.20;99.90;;;;;;5031661;28;20297;-62
2023/03/13 05:52:31;;;;;;;0.20;0.20;;;13.10;99.90;;;;;;5031307;28;20640;-62
2023/03/13 05:54:58;;;;;;;0.40;0.40;;;13.10;99.90;;;;;;5044099;28;20243;-62
2023/03/13 05:57:25;;;;;;;0.60;0.60;;;13.20;99.90;;;;;;5051933;28;20204;-61
2023/03/13 05:59:52;;;;;;;0.30;0.30;;;13.10;99.90;;;;;;5051563;28;20210;-63
2023/03/13 06:02:19;;;;;;;0.40;0.40;;;13.20;99.90;;;;;;5052178;28;20208;-63
2023/03/13 06:04:47;;;;;;;0.30;0.30;;;13.20;99.90;;;;;;5051134;28;20641;-61
2023/03/13 06:07:14;;;;;;;0.25;0.25;;;13.20;99.90;;;;;;5051615;28;20662;-61
2023/03/13 06:09:41;;;;;;;0.40;0.40;;;13.20;99.90;;;;;;5057716;28;20223;-62
2023/03/13 06:12:09;;;;;;;0.43;0.43;;;13.20;99.90;;;;;;5052137;28;20208;-61
2023/03/13 06:14:36;;;;;;;0.30;0.30;;;13.20;99.90;;;;;;5052117;28;20220;-63
2023/03/13 06:17:03;;;;;;;0.40;0.40;;;13.20;99.90;;;;;;5053187;28;20299;-64
2023/03/13 06:19:31;;;;;;;0.30;0.30;;;13.20;99.90;;;;;;5053258;28;20585;-61
2023/03/13 06:21:59;;;;;;;0.50;0.50;;;13.20;99.90;;;;;;5052330;28;20600;-63
2023/03/13 06:24:26;;;;;;;0.30;0.30;;;13.20;99.90;;;;;;5032421;28;20231;-63
2023/03/13 06:26:53;;;;;;;0.50;0.50;;;13.20;99.90;;;;;;5036877;28;20224;-61
2023/03/13 06:29:19;;;;;;;0.40;0.40;;;13.20;99.90;;;;;;5052923;28;20207;-64
2023/03/13 06:31:46;;;;;;;0.33;0.33;;;13.30;99.90;;;;;;5057170;28;20258;-63
2023/03/13 06:34:14;;;;;;;0.43;0.43;;;13.30;99.90;;;;;;5066446;28;20481;-63
2023/03/13 06:36:40;;;;;;;0.27;0.27;;;13.30;99.90;;;;;;5066169;28;20223;-63
2023/03/13 06:39:09;;;;;;;0.27;0.27;;;13.30;99.90;;;;;;5061897;28;20204;-61
2023/03/13 06:41:36;;;;;;;0.40;0.40;;;13.30;99.90;;;;;;5052608;28;20216;-63
2023/03/13 06:44:04;;;;;;;0.50;0.50;;;13.30;99.90;;;;;;5047397;28;20242;-62
2023/03/13 06:46:31;;;;;;;0.40;0.40;;;13.30;99.90;;;;;;5038004;28;20649;-63
2023/03/13 06:48:59;;;;;;;0.20;0.20;;;13.30;99.90;;;;;;5032213;28;20675;-64
2023/03/13 06:51:26;;;;;;;0.30;0.30;;;13.30;99.90;;;;;;5030744;28;20402;-63
2023/03/13 06:53:53;;;;;;;0.40;0.40;;;13.30;99.90;;;;;;5029470;28;20208;-63
2023/03/13 06:56:21;;;;;;;0.37;0.37;;;13.30;99.90;;;;;;5039416;28;20223;-62
2023/03/13 06:58:48;;;;;;;0.20;0.20;;;13.30;99.90;;;;;;5050675;28;20204;-61
2023/03/13 07:01:17;;;;;;;0.40;0.40;;;13.40;99.90;;;;;;5049457;28;20227;-63
2023/03/13 07:03:44;;;;;;;0.20;0.20;;;13.40;99.90;;;;;;5049807;28;20188;-60
2023/03/13 07:06:12;;;;;;;0.50;0.50;;;13.50;99.90;;;;;;5048937;28;20232;-62
2023/03/13 07:08:39;;;;;;;0.55;0.55;;;13.50;99.90;;;;;;5051004;28;20207;-62
2023/03/13 07:11:08;;;;;;;0.30;0.30;;;13.50;99.90;;;;;;5050156;28;20307;-63
2023/03/13 07:13:36;;;;;;;0.40;0.40;;;13.50;99.90;;;;;;5049666;28;20302;-62
2023/03/13 07:16:04;;;;;;;0.35;0.35;;;13.50;99.90;;;;;;5049800;28;20224;-62
2023/03/13 07:18:33;;;;;;;0.30;0.30;;;13.50;99.90;;;;;;5051298;28;20224;-62
2023/03/13 07:21:03;;;;;;;0.50;0.50;;;13.50;99.90;;;;;;5050416;28;20210;-63
2023/03/13 07:23:31;;;;;;;0.60;0.50;;;13.50;99.90;;;;;;5050871;28;20220;-62
2023/03/13 07:25:59;;;;;;;0.50;0.50;;;13.50;99.90;;;;;;5050162;28;20258;-62
2023/03/13 07:28:27;;;;;;;0.30;0.30;;;13.40;99.90;;;;;;5050690;28;20215;-63
2023/03/13 07:31:02;;;;;;;0.50;0.50;;;13.40;99.90;;;;;;5050484;28;20324;-62
2023/03/13 07:33:29;;;;;;;0.67;0.67;;;13.50;99.90;;;;;;5050336;28;20188;-62
2023/03/13 07:35:56;;;;;;;0.33;0.33;;;13.60;99.90;;;;;;5049895;28;20223;-61
2023/03/13 07:38:23;;;;;;;0.63;0.63;;;13.60;99.90;;;;;;5052669;28;20204;-62
2023/03/13 07:40:50;;;;;;;0.60;0.60;;;13.70;99.90;;;;;;5053857;28;20200;-62
2023/03/13 07:43:17;;;;;;;1.07;0.87;;;13.80;99.90;;;;;;5054037;28;20871;-63
2023/03/13 07:45:56;;;;;;;0.50;0.50;;;13.80;99.90;;;;;;5053773;28;20246;-62
2023/03/13 07:48:24;;;;;;;0.70;0.70;;;13.90;99.90;;;;;;5063531;28;20215;-62
2023/03/13 07:50:52;;;;;;;0.45;0.45;;;13.90;99.90;;;;;;5054456;28;20212;-62
2023/03/13 07:53:20;;;;;;;0.63;0.63;;;14.00;99.90;;;;;;5054385;28;20216;-62
2023/03/13 07:55:58;;;;;;;0.50;0.50;;;14.10;99.90;;;;;;5053274;28;20220;-61
2023/03/13 07:58:25;;;;;;;0.57;0.57;;;14.10;99.90;;;;;;5054909;28;20275;-63
2023/03/13 08:00:53;;;;;;;0.55;0.55;;;14.30;99.90;;;;;;5054366;28;20222;-63
2023/03/13 08:03:22;;;;;;;0.40;0.40;;;14.40;99.90;;;;;;5054546;28;20219;-63
2023/03/13 08:05:58;;;;;;;0.30;0.30;;;14.60;99.90;;;;;;5053745;28;20227;-62
2023/03/13 08:08:24;;;;;;;0.47;0.43;;;14.80;99.90;;;;;;5054537;28;20705;-62
2023/03/13 08:10:51;;;;;;;0.40;0.40;;;14.80;99.90;;;;;;5053642;28;20616;-62
2023/03/13 08:13:18;;;;;;;0.47;0.47;;;14.90;99.90;;;;;;5058984;28;20235;-61
2023/03/13 08:15:45;;;;;;;0.30;0.30;;;14.90;99.90;;;;;;5055646;28;20837;-63
2023/03/13 08:18:12;;;;;;;0.28;0.28;;;15.00;99.90;;;;;;5054786;28;20218;-62
2023/03/13 08:20:40;;;;;;;0.30;0.30;;;14.90;99.90;;;;;;5055187;28;20208;-63
2023/03/13 08:23:07;;;;;;;0.40;0.40;;;15.00;99.90;;;;;;5055354;28;20204;-61
2023/03/13 08:25:33;;;;;;;0.30;0.30;;;15.00;99.90;;;;;;5054102;28;20220;-62
2023/03/13 08:28:00;;;;;;;0.50;0.50;;;15.00;99.90;;;;;;5054526;28;20208;-60
2023/03/13 08:30:27;;;;;;;0.30;0.30;;;15.00;99.90;;;;;;5054669;28;20781;-61
2023/03/13 08:32:54;;;;;;;0.40;0.40;;;15.00;99.90;;;;;;5054713;28;20295;-62
2023/03/13 08:35:21;;;;;;;0.30;0.30;;;15.10;99.90;;;;;;5053329;28;20709;-61
2023/03/13 08:37:49;;;;;;;0.35;0.35;;;15.10;99.90;;;;;;5053721;28;20203;-63
2023/03/13 08:40:16;;;;;;;0.17;0.17;;;15.20;99.90;;;;;;5053301;28;20663;-63
2023/03/13 08:42:42;;;;;;;0.30;0.30;;;15.10;99.90;;;;;;5053769;28;20208;-61
2023/03/13 08:45:10;;;;;;;0.43;0.43;;;15.20;99.90;;;;;;5056829;28;20556;-62
2023/03/13 08:47:37;;;;;;;0.35;0.35;;;15.20;99.90;;;;;;5055294;28;20228;-63
2023/03/13 08:50:04;;;;;;;0.43;0.43;;;15.10;99.90;;;;;;5052291;28;20200;-63
2023/03/13 08:52:31;;;;;;;0.40;0.40;;;15.10;99.90;;;;;;5053419;28;20309;-61
2023/03/13 08:54:59;;;;;;;0.40;0.40;;;15.20;99.90;;;;;;5052766;28;20718;-62
2023/03/13 08:57:26;;;;;;;0.23;0.23;;;15.20;99.90;;;;;;5053466;28;20208;-62
2023/03/13 08:59:53;;;;;;;0.10;0.10;;;15.20;99.90;;;;;;5054189;28;20204;-62
2023/03/13 09:02:19;;;;;;;0.40;0.40;;;15.30;99.90;;;;;;5055282;28;20210;-63
2023/03/13 09:04:49;;;;;;;0.40;0.40;;;15.40;99.90;;;;;;5053306;28;20238;-62
2023/03/13 09:07:16;;;;;;;0.63;0.63;;;15.50;99.90;;;;;;5053417;28;20226;-62
2023/03/13 09:09:44;;;;;;;0.40;0.40;;;15.50;99.90;;;;;;5052980;28;20212;-62
2023/03/13 09:12:12;;;;;;;0.47;0.45;;;15.60;99.90;;;;;;5052404;28;20295;-62
2023/03/13 09:14:39;;;;;;;0.55;0.55;;;15.70;99.90;;;;;;5051854;28;20223;-62
2023/03/13 09:17:06;;;;;;;0.30;0.30;;;15.70;99.90;;;;;;5054131;28;20199;-62
2023/03/13 09:19:33;;;;;;;0.35;0.35;;;15.80;99.90;;;;;;5055322;28;20204;-63
2023/03/13 09:22:00;;;;;;;0.28;0.28;;;15.90;99.90;;;;;;5055624;28;20216;-63
2023/03/13 09:24:32;;;;;;;0.35;0.35;;;15.90;99.90;;;;;;5054039;28;20331;-63
2023/03/13 09:27:02;;;;;;;0.50;0.50;;;16.10;99.90;;;;;;5054351;28;20216;-63
2023/03/13 09:29:41;;;;;;;0.52;0.40;;;16.30;99.90;;;;;;5054210;28;20200;-61
2023/03/13 09:32:10;;;;;;;0.65;0.65;;;16.60;99.90;;;;;;5052440;28;20204;-61
2023/03/13 09:34:45;;;;;;;0.55;0.55;;;17.00;99.90;;;;;;5052355;28;20228;-62
2023/03/13 09:37:21;;;;;;;0.70;0.55;;;17.40;99.90;;;;;;5053587;28;20200;-62
2023/03/13 09:39:49;;;;;;;1.08;1.00;;;17.70;99.90;;;;;;5052974;28;20191;-63
2023/03/13 09:42:19;;;;;;;0.47;0.47;;;17.80;99.90;;;;;;5051654;28;20204;-63
2023/03/13 09:44:52;;;;;;;0.40;0.40;;;17.70;99.90;;;;;;5051710;28;20228;-62
2023/03/13 09:47:24;;;;;;;0.50;0.50;;;17.60;99.90;;;;;;5052338;28;20232;-62
2023/03/13 09:49:56;;;;;;;0.77;0.77;;;17.50;99.90;;;;;;5052029;28;20219;-63
2023/03/13 09:52:30;;;;;;;0.50;0.50;;;17.40;99.90;;;;;;5051790;28;20235;-63
2023/03/13 09:55:02;;;;;;;0.80;0.80;;;17.40;99.90;;;;;;5051513;28;20239;-62
2023/03/13 09:57:39;;;;;;;0.60;0.60;;;17.40;99.90;;;;;;5052180;28;20223;-62
2023/03/13 10:00:20;;;;;;;2.65;1.17;;;17.40;99.90;;;;;;5052174;28;20562;-62
2023/03/13 10:02:58;;;;;;;0.65;0.65;;;17.30;99.90;;;;;;5051325;28;20188;-63
2023/03/13 10:05:33;;;;;;;0.73;0.73;;;17.30;99.90;;;;;;5051481;28;20764;-63
2023/03/13 10:08:15;;;;;;;0.73;0.73;;;17.40;99.90;;;;;;5051897;28;20227;-62
2023/03/13 10:10:50;;;;;;;0.85;0.85;;;17.50;99.90;;;;;;5051472;28;20212;-63
2023/03/13 10:13:32;;;;;;;0.90;0.90;;;17.60;99.90;;;;;;5051849;28;20207;-62
2023/03/13 10:16:03;;;;;;;0.80;0.80;;;17.70;99.90;;;;;;5051606;28;20330;-61
2023/03/13 10:18:33;;;;;;;0.70;0.70;;;17.80;99.90;;;;;;5051939;28;20196;-61
2023/03/13 10:21:14;;;;;;;0.90;0.90;;;17.80;99.90;;;;;;5051658;28;20206;-61
2023/03/13 10:23:55;;;;;;;1.10;0.80;;;17.90;99.90;;;;;;5051862;28;20628;-62
2023/03/13 10:26:27;;;;;;;1.35;1.20;;;17.90;99.90;;;;;;5051800;28;20274;-62
2023/03/13 10:28:56;;;;;;;0.85;0.85;;;18.00;99.90;;;;;;5053031;28;20199;-62
2023/03/13 10:31:29;;;;;;;1.10;1.00;;;18.00;99.90;;;;;;5052265;28;20211;-62
2023/03/13 10:34:07;;;;;;;0.82;0.82;;;18.10;99.90;;;;;;5051488;28;20219;-61
2023/03/13 10:36:40;;;;;;;0.77;0.77;;;18.40;99.90;;;;;;5052049;28;20253;-61
2023/03/13 10:39:14;;;;;;;0.55;0.55;;;18.80;99.90;;;;;;5051323;28;20223;-62
2023/03/13 10:41:41;;;;;;;0.60;0.60;;;19.10;99.90;;;;;;5058128;28;20682;-63
2023/03/13 10:44:20;;;;;;;0.70;0.70;;;19.20;99.90;;;;;;5057347;28;20211;-61
2023/03/13 10:47:01;;;;;;;0.60;0.60;;;19.40;99.90;;;;;;5057810;28;20311;-62
2023/03/13 10:49:30;;;;;;;0.50;0.50;;;19.60;99.90;;;;;;5056506;28;20586;-62
2023/03/13 10:52:01;;;;;;;0.60;0.60;;;19.90;99.90;;;;;;5055992;28;20200;-62
2023/03/13 10:54:34;;;;;;;0.55;0.50;;;20.00;99.90;;;;;;5060310;28;20224;-60
2023/03/13 10:57:27;;;;;;;0.65;0.65;;;20.10;99.90;;;;;;5056908;28;20253;-61
2023/03/13 10:59:55;;;;;;;0.70;0.70;;;20.20;99.90;;;;;;5054704;28;20261;-62
2023/03/13 11:02:27;;;;;;;0.63;0.50;;;20.40;99.90;;;;;;5050974;28;20239;-63
2023/03/13 11:04:54;;;;;;;1.75;0.70;;;20.30;99.90;;;;;;5050232;28;20277;-63
2023/03/13 11:07:27;;;;;;;0.60;0.60;;;20.30;99.90;;;;;;5050623;28;20228;-62
2023/03/13 11:10:16;;;;;;;0.70;0.70;;;20.30;99.90;;;;;;5050505;28;20255;-63
2023/03/13 11:12:51;;;;;;;0.60;0.60;;;20.40;99.90;;;;;;5052251;28;20219;-61
2023/03/13 11:15:25;;;;;;;0.70;0.70;;;20.40;99.90;;;;;;5054537;28;20227;-62
2023/03/13 11:18:00;;;;;;;0.43;0.43;;;20.50;99.90;;;;;;5055201;28;20189;-64
2023/03/13 11:20:30;;;;;;;0.47;0.47;;;20.60;99.90;;;;;;5055087;28;20203;-63
2023/03/13 11:23:12;;;;;;;0.50;0.50;;;20.70;99.90;;;;;;5059754;28;20298;-62
2023/03/13 11:25:50;;;;;;;0.32;0.32;;;20.80;99.90;;;;;;5061777;28;20591;-62
2023/03/13 11:28:39;;;;;;;0.50;0.50;;;20.90;99.90;;;;;;5056070;28;20220;-62
2023/03/13 11:31:11;;;;;;;0.40;0.40;;;21.00;99.90;;;;;;5054568;28;20193;-61
2023/03/13 11:33:56;;;;;;;0.40;0.40;;;21.10;99.90;;;;;;5053404;28;20291;-61
2023/03/13 11:36:32;;;;;;;1.17;0.55;;;21.20;99.90;;;;;;5054680;28;20224;-63
2023/03/13 11:39:11;;;;;;;0.50;0.50;;;21.20;99.90;;;;;;5054039;28;20207;-63
2023/03/13 11:41:55;;;;;;;0.50;0.50;;;21.20;99.90;;;;;;5052175;28;20193;-63
2023/03/13 11:44:44;;;;;;;0.50;0.50;;;21.20;99.90;;;;;;5053424;28;20212;-64
2023/03/13 11:47:30;;;;;;;0.22;0.22;;;21.30;99.90;;;;;;5053892;28;20956;-62
2023/03/13 11:50:17;;;;;;;0.40;0.40;;;21.40;99.90;;;;;;5054318;28;20215;-62
2023/03/13 11:53:01;;;;;;;0.57;0.57;;;21.40;99.90;;;;;;5054166;28;20202;-62
2023/03/13 11:55:46;;;;;;;0.30;0.30;;;21.40;99.90;;;;;;5053666;28;20263;-63
2023/03/13 11:58:37;;;;;;;0.30;0.30;;;21.40;99.90;;;;;;5054262;28;20200;-63
2023/03/13 12:01:10;;;;;;;0.30;0.30;;;21.40;99.90;;;;;;5051842;28;20589;-62
2023/03/13 12:03:43;;;;;;;0.30;0.30;;;21.30;99.90;;;;;;5054910;28;20607;-62
2023/03/13 12:06:28;;;;;;;0.60;0.60;;;21.20;99.90;;;;;;5054152;28;20595;-63
2023/03/13 12:09:06;;;;;;;0.50;0.50;;;21.30;99.90;;;;;;5054711;28;20718;-63
2023/03/13 12:11:42;;;;;;;0.40;0.40;;;21.40;99.90;;;;;;5053775;28;20286;-62
2023/03/13 12:14:16;;;;;;;0.50;0.50;;;21.70;99.90;;;;;;5053109;28;20219;-63
2023/03/13 12:16:49;;;;;;;0.70;0.68;;;21.80;99.90;;;;;;5053776;28;20211;-64
2023/03/13 12:19:24;;;;;;;1.40;0.40;;;21.80;99.90;;;;;;5053963;28;20697;-61
2023/03/13 12:22:07;;;;;;;2.08;0.60;;;21.70;99.90;;;;;;5053546;28;20207;-62
2023/03/13 12:24:46;;;;;;;0.40;0.40;;;21.70;99.90;;;;;;5052376;28;20235;-63
2023/03/13 12:27:19;;;;;;;0.50;0.50;;;21.80;99.90;;;;;;5053212;28;20227;-63
2023/03/13 12:30:06;;;;;;;0.45;0.45;;;21.90;99.90;;;;;;5054027;28;20283;-64
2023/03/13 12:32:41;;;;;;;0.40;0.40;;;21.90;99.90;;;;;;5053638;28;20223;-61
2023/03/13 12:35:18;;;;;;;0.35;0.35;;;22.10;99.90;;;;;;5054165;28;20238;-63
2023/03/13 12:37:54;;;;;;;0.50;0.50;;;22.10;99.90;;;;;;5056204;28;20218;-62
2023/03/13 12:40:28;;;;;;;0.50;0.50;;;22.10;99.90;;;;;;5060894;28;20745;-63
2023/03/13 12:43:04;;;;;;;0.40;0.40;;;22.10;99.90;;;;;;5062442;28;20204;-63
2023/03/13 12:45:33;;;;;;;0.40;0.40;;;22.00;99.90;;;;;;5056502;28;20658;-62
2023/03/13 12:48:27;;;;;;;0.32;0.32;;;21.90;99.90;;;;;;5057556;28;20246;-64
2023/03/13 12:51:17;;;;;;;1.23;0.50;;;22.00;99.90;;;;;;5054055;28;20655;-62
2023/03/13 12:54:20;;;;;;;0.30;0.30;;;22.10;99.90;;;;;;5053430;28;20210;-62
2023/03/13 12:57:01;;;;;;;0.52;0.52;;;22.10;99.90;;;;;;5054909;28;20204;-64
2023/03/13 13:02:28;;;;;;;0.60;0.60;;;21.90;99.90;;;;;;5051715;28;20216;-62
2023/03/13 13:05:00;;;;;;;0.50;0.50;;;21.80;99.90;;;;;;5052848;28;20315;-62
2023/03/13 13:07:29;;;;;;;0.20;0.20;;;21.80;99.90;;;;;;5052945;28;20277;-62